sensor_id;sensor_type;location;lat;lon;timestamp;P1;durP1;ratioP1;P2;durP2;ratioP2
40501;SDS011;29631;49.168;9.848;2023-07-02T00:01:46;2.17;;;2.08;;
40501;SDS011;29631;49.168;9.848;2023-07-02T00:04:13;2.10;;;2.00;;
40501;SDS011;29631;49.168;9.848;2023-07-02T00:06:41;2.40;;;2.25;;
40501;SDS011;29631;49.168;9.848;2023-07-02T00:09:10;2.22;;;2.13;;
40501;SDS011;29631;49.168;9.848;2023-07-02T00:11:40;1.88;;;1.77;;
40501;SDS011;29631;49.168;9.848;2023-07-02T00:14:11;2.45;;;2.25;;
40501;SDS011;29631;49.168;9.848;2023-07-02T00:16:44;2.28;;;2.08;;
40501;SDS011;29631;49.168;9.848;2023-07-02T00:19:11;2.10;;;2.00;;
40501;SDS011;29631;49.168;9.848;2023-07-02T00:21:39;2.45;;;2.00;;
40501;SDS011;29631;49.168;9.848;2023-07-02T00:24:05;2.03;;;1.92;;
40501;SDS011;29631;49.168;9.848;2023-07-02T00:26:34;2.08;;;2.00;;
40501;SDS011;29631;49.168;9.848;2023-07-02T00:29:01;2.35;;;2.25;;
40501;SDS011;29631;49.168;9.848;2023-07-02T00:31:28;2.30;;;2.15;;
40501;SDS011;29631;49.168;9.848;2023-07-02T00:33:54;2.15;;;2.05;;
40501;SDS011;29631;49.168;9.848;2023-07-02T00:36:20;2.38;;;2.28;;
40501;SDS011;29631;49.168;9.848;2023-07-02T00:38:46;2.45;;;2.00;;
40501;SDS011;29631;49.168;9.848;2023-07-02T00:41:14;1.80;;;1.70;;
40501;SDS011;29631;49.168;9.848;2023-07-02T00:43:40;2.45;;;2.30;;
40501;SDS011;29631;49.168;9.848;2023-07-02T00:46:16;2.15;;;2.05;;
40501;SDS011;29631;49.168;9.848;2023-07-02T00:48:45;1.98;;;1.88;;
40501;SDS011;29631;49.168;9.848;2023-07-02T00:51:17;1.95;;;1.85;;
40501;SDS011;29631;49.168;9.848;2023-07-02T00:53:45;3.22;;;1.90;;
40501;SDS011;29631;49.168;9.848;2023-07-02T00:56:12;1.92;;;1.83;;
40501;SDS011;29631;49.168;9.848;2023-07-02T00:58:39;2.55;;;1.83;;
40501;SDS011;29631;49.168;9.848;2023-07-02T01:01:20;1.73;;;1.60;;
40501;SDS011;29631;49.168;9.848;2023-07-02T01:06:24;1.98;;;1.88;;
40501;SDS011;29631;49.168;9.848;2023-07-02T01:08:55;5.53;;;1.95;;
40501;SDS011;29631;49.168;9.848;2023-07-02T01:11:46;1.98;;;1.88;;
40501;SDS011;29631;49.168;9.848;2023-07-02T01:14:22;2.00;;;1.90;;
40501;SDS011;29631;49.168;9.848;2023-07-02T01:17:05;2.13;;;2.03;;
40501;SDS011;29631;49.168;9.848;2023-07-02T01:22:07;2.00;;;1.90;;
40501;SDS011;29631;49.168;9.848;2023-07-02T01:24:33;2.08;;;1.98;;
40501;SDS011;29631;49.168;9.848;2023-07-02T01:27:00;1.70;;;1.60;;
40501;SDS011;29631;49.168;9.848;2023-07-02T01:29:28;1.75;;;1.67;;
40501;SDS011;29631;49.168;9.848;2023-07-02T01:31:55;2.10;;;1.92;;
40501;SDS011;29631;49.168;9.848;2023-07-02T01:34:22;4.20;;;2.00;;
40501;SDS011;29631;49.168;9.848;2023-07-02T01:36:48;2.22;;;2.13;;
40501;SDS011;29631;49.168;9.848;2023-07-02T01:39:14;1.70;;;1.70;;
40501;SDS011;29631;49.168;9.848;2023-07-02T01:41:44;1.95;;;1.80;;
40501;SDS011;29631;49.168;9.848;2023-07-02T01:44:19;1.80;;;1.70;;
40501;SDS011;29631;49.168;9.848;2023-07-02T01:46:47;2.03;;;1.90;;
40501;SDS011;29631;49.168;9.848;2023-07-02T01:49:18;1.80;;;1.70;;
40501;SDS011;29631;49.168;9.848;2023-07-02T01:51:50;1.75;;;1.65;;
40501;SDS011;29631;49.168;9.848;2023-07-02T01:54:18;2.00;;;1.80;;
40501;SDS011;29631;49.168;9.848;2023-07-02T01:56:44;1.90;;;1.80;;
40501;SDS011;29631;49.168;9.848;2023-07-02T01:59:10;1.83;;;1.73;;
40501;SDS011;29631;49.168;9.848;2023-07-02T02:01:36;2.00;;;1.90;;
40501;SDS011;29631;49.168;9.848;2023-07-02T02:04:05;2.03;;;1.92;;
40501;SDS011;29631;49.168;9.848;2023-07-02T02:06:32;2.00;;;1.90;;
40501;SDS011;29631;49.168;9.848;2023-07-02T02:08:58;1.63;;;1.52;;
40501;SDS011;29631;49.168;9.848;2023-07-02T02:11:25;2.05;;;1.95;;
40501;SDS011;29631;49.168;9.848;2023-07-02T02:13:50;2.10;;;1.90;;
40501;SDS011;29631;49.168;9.848;2023-07-02T02:16:16;1.77;;;1.50;;
40501;SDS011;29631;49.168;9.848;2023-07-02T02:18:42;1.90;;;1.80;;
40501;SDS011;29631;49.168;9.848;2023-07-02T02:21:08;2.70;;;1.90;;
40501;SDS011;29631;49.168;9.848;2023-07-02T02:23:33;4.00;;;1.80;;
40501;SDS011;29631;49.168;9.848;2023-07-02T02:25:59;1.73;;;1.63;;
40501;SDS011;29631;49.168;9.848;2023-07-02T02:28:26;1.80;;;1.70;;
40501;SDS011;29631;49.168;9.848;2023-07-02T02:30:52;1.92;;;1.83;;
40501;SDS011;29631;49.168;9.848;2023-07-02T02:33:17;2.38;;;1.85;;
40501;SDS011;29631;49.168;9.848;2023-07-02T02:35:43;3.13;;;1.88;;
40501;SDS011;29631;49.168;9.848;2023-07-02T02:38:10;2.00;;;1.90;;
40501;SDS011;29631;49.168;9.848;2023-07-02T02:40:36;2.47;;;1.85;;
40501;SDS011;29631;49.168;9.848;2023-07-02T02:43:02;1.80;;;1.67;;
40501;SDS011;29631;49.168;9.848;2023-07-02T02:45:27;2.08;;;1.98;;
40501;SDS011;29631;49.168;9.848;2023-07-02T02:47:54;1.80;;;1.70;;
40501;SDS011;29631;49.168;9.848;2023-07-02T02:50:20;2.50;;;2.30;;
40501;SDS011;29631;49.168;9.848;2023-07-02T02:52:45;2.13;;;1.92;;
40501;SDS011;29631;49.168;9.848;2023-07-02T02:55:11;3.00;;;1.77;;
40501;SDS011;29631;49.168;9.848;2023-07-02T02:57:37;2.10;;;2.00;;
40501;SDS011;29631;49.168;9.848;2023-07-02T03:00:03;2.05;;;1.95;;
40501;SDS011;29631;49.168;9.848;2023-07-02T03:02:30;1.67;;;1.58;;
40501;SDS011;29631;49.168;9.848;2023-07-02T03:04:55;2.30;;;2.10;;
40501;SDS011;29631;49.168;9.848;2023-07-02T03:07:22;1.70;;;1.70;;
40501;SDS011;29631;49.168;9.848;2023-07-02T03:09:47;2.20;;;1.98;;
40501;SDS011;29631;49.168;9.848;2023-07-02T03:12:13;3.17;;;2.20;;
40501;SDS011;29631;49.168;9.848;2023-07-02T03:14:39;2.10;;;1.90;;
40501;SDS011;29631;49.168;9.848;2023-07-02T03:17:05;2.10;;;2.00;;
40501;SDS011;29631;49.168;9.848;2023-07-02T03:19:30;1.95;;;1.85;;
40501;SDS011;29631;49.168;9.848;2023-07-02T03:21:56;2.13;;;2.03;;
40501;SDS011;29631;49.168;9.848;2023-07-02T03:24:22;2.05;;;1.95;;
40501;SDS011;29631;49.168;9.848;2023-07-02T03:26:47;3.95;;;2.20;;
40501;SDS011;29631;49.168;9.848;2023-07-02T03:29:13;4.03;;;2.88;;
40501;SDS011;29631;49.168;9.848;2023-07-02T03:31:40;2.90;;;2.70;;
40501;SDS011;29631;49.168;9.848;2023-07-02T03:34:09;2.72;;;2.53;;
40501;SDS011;29631;49.168;9.848;2023-07-02T03:36:35;3.30;;;2.72;;
40501;SDS011;29631;49.168;9.848;2023-07-02T03:39:02;7.28;;;3.38;;
40501;SDS011;29631;49.168;9.848;2023-07-02T03:41:29;3.45;;;3.13;;
40501;SDS011;29631;49.168;9.848;2023-07-02T03:43:54;3.53;;;3.15;;
40501;SDS011;29631;49.168;9.848;2023-07-02T03:46:20;3.70;;;3.40;;
40501;SDS011;29631;49.168;9.848;2023-07-02T03:48:46;3.78;;;3.45;;
40501;SDS011;29631;49.168;9.848;2023-07-02T03:51:12;3.88;;;3.60;;
40501;SDS011;29631;49.168;9.848;2023-07-02T03:53:39;5.38;;;4.60;;
40501;SDS011;29631;49.168;9.848;2023-07-02T03:56:08;5.20;;;3.67;;
40501;SDS011;29631;49.168;9.848;2023-07-02T03:58:34;4.75;;;4.03;;
40501;SDS011;29631;49.168;9.848;2023-07-02T04:01:00;5.07;;;4.68;;
40501;SDS011;29631;49.168;9.848;2023-07-02T04:03:26;7.13;;;5.05;;
40501;SDS011;29631;49.168;9.848;2023-07-02T04:05:52;7.25;;;4.43;;
40501;SDS011;29631;49.168;9.848;2023-07-02T04:08:18;5.22;;;4.72;;
40501;SDS011;29631;49.168;9.848;2023-07-02T04:10:46;7.20;;;4.60;;
40501;SDS011;29631;49.168;9.848;2023-07-02T04:13:11;5.82;;;4.95;;
40501;SDS011;29631;49.168;9.848;2023-07-02T04:15:37;6.63;;;5.32;;
40501;SDS011;29631;49.168;9.848;2023-07-02T04:18:03;5.18;;;4.78;;
40501;SDS011;29631;49.168;9.848;2023-07-02T04:20:29;5.53;;;4.70;;
40501;SDS011;29631;49.168;9.848;2023-07-02T04:22:55;8.73;;;5.57;;
40501;SDS011;29631;49.168;9.848;2023-07-02T04:25:21;9.50;;;5.70;;
40501;SDS011;29631;49.168;9.848;2023-07-02T04:27:46;6.50;;;5.25;;
40501;SDS011;29631;49.168;9.848;2023-07-02T04:30:12;8.18;;;5.45;;
40501;SDS011;29631;49.168;9.848;2023-07-02T04:32:39;6.00;;;4.95;;
40501;SDS011;29631;49.168;9.848;2023-07-02T04:35:06;5.50;;;4.82;;
40501;SDS011;29631;49.168;9.848;2023-07-02T04:37:33;6.63;;;5.13;;
40501;SDS011;29631;49.168;9.848;2023-07-02T04:39:59;7.13;;;4.90;;
40501;SDS011;29631;49.168;9.848;2023-07-02T04:42:25;6.95;;;4.53;;
40501;SDS011;29631;49.168;9.848;2023-07-02T04:44:55;5.30;;;4.72;;
40501;SDS011;29631;49.168;9.848;2023-07-02T04:47:21;6.25;;;4.97;;
40501;SDS011;29631;49.168;9.848;2023-07-02T04:49:47;5.65;;;4.93;;
40501;SDS011;29631;49.168;9.848;2023-07-02T04:52:13;5.38;;;4.50;;
40501;SDS011;29631;49.168;9.848;2023-07-02T04:54:38;4.72;;;4.05;;
40501;SDS011;29631;49.168;9.848;2023-07-02T04:57:04;5.07;;;4.13;;
40501;SDS011;29631;49.168;9.848;2023-07-02T04:59:30;5.57;;;3.75;;
40501;SDS011;29631;49.168;9.848;2023-07-02T05:01:55;4.78;;;3.90;;
40501;SDS011;29631;49.168;9.848;2023-07-02T05:04:21;4.18;;;3.88;;
40501;SDS011;29631;49.168;9.848;2023-07-02T05:06:47;4.40;;;4.00;;
40501;SDS011;29631;49.168;9.848;2023-07-02T05:09:12;6.80;;;3.97;;
40501;SDS011;29631;49.168;9.848;2023-07-02T05:11:38;4.18;;;3.72;;
40501;SDS011;29631;49.168;9.848;2023-07-02T05:14:04;5.38;;;4.10;;
40501;SDS011;29631;49.168;9.848;2023-07-02T05:16:30;4.22;;;3.78;;
40501;SDS011;29631;49.168;9.848;2023-07-02T05:18:55;4.20;;;3.67;;
40501;SDS011;29631;49.168;9.848;2023-07-02T05:21:21;4.97;;;4.07;;
40501;SDS011;29631;49.168;9.848;2023-07-02T05:23:47;5.28;;;4.20;;
40501;SDS011;29631;49.168;9.848;2023-07-02T05:26:13;5.25;;;4.35;;
40501;SDS011;29631;49.168;9.848;2023-07-02T05:28:39;4.57;;;4.10;;
40501;SDS011;29631;49.168;9.848;2023-07-02T05:31:05;5.28;;;3.92;;
40501;SDS011;29631;49.168;9.848;2023-07-02T05:33:31;5.03;;;4.57;;
40501;SDS011;29631;49.168;9.848;2023-07-02T05:35:58;7.05;;;3.83;;
40501;SDS011;29631;49.168;9.848;2023-07-02T05:38:24;6.28;;;4.00;;
40501;SDS011;29631;49.168;9.848;2023-07-02T05:40:50;6.97;;;4.30;;
40501;SDS011;29631;49.168;9.848;2023-07-02T05:43:15;5.38;;;4.60;;
40501;SDS011;29631;49.168;9.848;2023-07-02T05:45:41;4.97;;;4.47;;
40501;SDS011;29631;49.168;9.848;2023-07-02T05:48:07;4.78;;;4.38;;
40501;SDS011;29631;49.168;9.848;2023-07-02T05:50:33;5.35;;;4.85;;
40501;SDS011;29631;49.168;9.848;2023-07-02T05:52:58;5.50;;;4.68;;
40501;SDS011;29631;49.168;9.848;2023-07-02T05:55:24;5.45;;;4.85;;
40501;SDS011;29631;49.168;9.848;2023-07-02T05:57:50;6.05;;;5.47;;
40501;SDS011;29631;49.168;9.848;2023-07-02T06:00:16;7.90;;;5.53;;
40501;SDS011;29631;49.168;9.848;2023-07-02T06:02:42;9.75;;;6.65;;
40501;SDS011;29631;49.168;9.848;2023-07-02T06:05:08;9.48;;;6.95;;
40501;SDS011;29631;49.168;9.848;2023-07-02T06:07:33;8.02;;;6.97;;
40501;SDS011;29631;49.168;9.848;2023-07-02T06:09:59;9.70;;;7.00;;
40501;SDS011;29631;49.168;9.848;2023-07-02T06:12:25;8.45;;;6.75;;
40501;SDS011;29631;49.168;9.848;2023-07-02T06:14:50;8.98;;;6.90;;
40501;SDS011;29631;49.168;9.848;2023-07-02T06:17:16;10.93;;;7.30;;
40501;SDS011;29631;49.168;9.848;2023-07-02T06:19:44;7.18;;;6.22;;
40501;SDS011;29631;49.168;9.848;2023-07-02T06:22:10;7.00;;;6.35;;
40501;SDS011;29631;49.168;9.848;2023-07-02T06:24:35;7.82;;;6.82;;
40501;SDS011;29631;49.168;9.848;2023-07-02T06:27:01;7.75;;;6.95;;
40501;SDS011;29631;49.168;9.848;2023-07-02T06:29:27;8.45;;;6.78;;
40501;SDS011;29631;49.168;9.848;2023-07-02T06:31:54;8.75;;;6.85;;
40501;SDS011;29631;49.168;9.848;2023-07-02T06:34:20;7.40;;;6.55;;
40501;SDS011;29631;49.168;9.848;2023-07-02T06:36:45;6.65;;;5.95;;
40501;SDS011;29631;49.168;9.848;2023-07-02T06:39:11;6.65;;;5.80;;
40501;SDS011;29631;49.168;9.848;2023-07-02T06:41:37;8.95;;;6.82;;
40501;SDS011;29631;49.168;9.848;2023-07-02T06:44:02;10.93;;;6.60;;
40501;SDS011;29631;49.168;9.848;2023-07-02T06:46:29;8.02;;;7.28;;
40501;SDS011;29631;49.168;9.848;2023-07-02T06:48:55;7.57;;;6.40;;
40501;SDS011;29631;49.168;9.848;2023-07-02T06:51:21;8.07;;;6.90;;
40501;SDS011;29631;49.168;9.848;2023-07-02T06:53:47;7.53;;;6.25;;
40501;SDS011;29631;49.168;9.848;2023-07-02T06:56:13;8.68;;;6.72;;
40501;SDS011;29631;49.168;9.848;2023-07-02T06:58:41;8.15;;;7.35;;
40501;SDS011;29631;49.168;9.848;2023-07-02T07:01:08;8.07;;;6.88;;
40501;SDS011;29631;49.168;9.848;2023-07-02T07:03:37;7.70;;;6.88;;
40501;SDS011;29631;49.168;9.848;2023-07-02T07:06:03;8.13;;;7.32;;
40501;SDS011;29631;49.168;9.848;2023-07-02T07:08:29;8.18;;;7.28;;
40501;SDS011;29631;49.168;9.848;2023-07-02T07:10:54;8.45;;;7.15;;
40501;SDS011;29631;49.168;9.848;2023-07-02T07:13:20;7.60;;;6.80;;
40501;SDS011;29631;49.168;9.848;2023-07-02T07:15:46;10.45;;;7.57;;
40501;SDS011;29631;49.168;9.848;2023-07-02T07:18:12;8.48;;;6.75;;
40501;SDS011;29631;49.168;9.848;2023-07-02T07:20:38;7.78;;;6.90;;
40501;SDS011;29631;49.168;9.848;2023-07-02T07:23:06;7.13;;;6.43;;
40501;SDS011;29631;49.168;9.848;2023-07-02T07:25:32;8.02;;;6.88;;
40501;SDS011;29631;49.168;9.848;2023-07-02T07:27:59;11.40;;;7.18;;
40501;SDS011;29631;49.168;9.848;2023-07-02T07:30:26;8.32;;;7.47;;
40501;SDS011;29631;49.168;9.848;2023-07-02T07:32:52;8.32;;;7.45;;
40501;SDS011;29631;49.168;9.848;2023-07-02T07:35:19;8.45;;;7.53;;
40501;SDS011;29631;49.168;9.848;2023-07-02T07:37:46;10.70;;;8.15;;
40501;SDS011;29631;49.168;9.848;2023-07-02T07:40:12;11.10;;;8.02;;
40501;SDS011;29631;49.168;9.848;2023-07-02T07:42:39;11.27;;;8.48;;
40501;SDS011;29631;49.168;9.848;2023-07-02T07:45:06;10.05;;;8.73;;
40501;SDS011;29631;49.168;9.848;2023-07-02T07:47:32;10.45;;;9.07;;
40501;SDS011;29631;49.168;9.848;2023-07-02T07:49:58;10.98;;;9.88;;
40501;SDS011;29631;49.168;9.848;2023-07-02T07:52:23;10.50;;;9.43;;
40501;SDS011;29631;49.168;9.848;2023-07-02T07:54:49;11.05;;;9.93;;
40501;SDS011;29631;49.168;9.848;2023-07-02T07:57:15;13.00;;;9.75;;
40501;SDS011;29631;49.168;9.848;2023-07-02T07:59:40;11.45;;;9.98;;
40501;SDS011;29631;49.168;9.848;2023-07-02T08:02:06;12.65;;;9.50;;
40501;SDS011;29631;49.168;9.848;2023-07-02T08:04:32;14.65;;;10.82;;
40501;SDS011;29631;49.168;9.848;2023-07-02T08:06:57;13.40;;;10.43;;
40501;SDS011;29631;49.168;9.848;2023-07-02T08:09:24;13.00;;;10.90;;
40501;SDS011;29631;49.168;9.848;2023-07-02T08:11:50;12.10;;;10.80;;
40501;SDS011;29631;49.168;9.848;2023-07-02T08:14:16;12.15;;;9.45;;
40501;SDS011;29631;49.168;9.848;2023-07-02T08:16:45;11.63;;;10.43;;
40501;SDS011;29631;49.168;9.848;2023-07-02T08:19:11;10.90;;;9.90;;
40501;SDS011;29631;49.168;9.848;2023-07-02T08:21:36;13.68;;;9.77;;
40501;SDS011;29631;49.168;9.848;2023-07-02T08:24:02;10.80;;;9.35;;
40501;SDS011;29631;49.168;9.848;2023-07-02T08:26:28;11.15;;;9.90;;
40501;SDS011;29631;49.168;9.848;2023-07-02T08:28:55;11.88;;;10.05;;
40501;SDS011;29631;49.168;9.848;2023-07-02T08:31:20;11.25;;;10.10;;
40501;SDS011;29631;49.168;9.848;2023-07-02T08:33:46;12.05;;;10.50;;
40501;SDS011;29631;49.168;9.848;2023-07-02T08:36:12;11.13;;;10.00;;
40501;SDS011;29631;49.168;9.848;2023-07-02T08:38:38;12.20;;;10.93;;
40501;SDS011;29631;49.168;9.848;2023-07-02T08:41:08;11.75;;;10.55;;
40501;SDS011;29631;49.168;9.848;2023-07-02T08:43:34;13.50;;;11.15;;
40501;SDS011;29631;49.168;9.848;2023-07-02T08:46:01;13.68;;;11.05;;
40501;SDS011;29631;49.168;9.848;2023-07-02T08:48:27;12.07;;;10.88;;
40501;SDS011;29631;49.168;9.848;2023-07-02T08:50:54;13.50;;;11.57;;
40501;SDS011;29631;49.168;9.848;2023-07-02T08:53:21;11.52;;;10.18;;
40501;SDS011;29631;49.168;9.848;2023-07-02T08:55:54;13.88;;;11.02;;
40501;SDS011;29631;49.168;9.848;2023-07-02T08:58:21;13.63;;;11.13;;
40501;SDS011;29631;49.168;9.848;2023-07-02T09:03:37;12.68;;;11.38;;
40501;SDS011;29631;49.168;9.848;2023-07-02T09:06:08;12.73;;;10.93;;
40501;SDS011;29631;49.168;9.848;2023-07-02T09:08:35;12.00;;;10.80;;
40501;SDS011;29631;49.168;9.848;2023-07-02T09:11:20;15.20;;;10.73;;
40501;SDS011;29631;49.168;9.848;2023-07-02T09:16:20;11.70;;;10.57;;
40501;SDS011;29631;49.168;9.848;2023-07-02T09:24:23;12.32;;;10.98;;
40501;SDS011;29631;49.168;9.848;2023-07-02T09:26:50;14.93;;;10.73;;
40501;SDS011;29631;49.168;9.848;2023-07-02T09:29:30;11.57;;;10.35;;
40501;SDS011;29631;49.168;9.848;2023-07-02T09:32:02;10.75;;;9.73;;
40501;SDS011;29631;49.168;9.848;2023-07-02T09:34:33;12.18;;;10.10;;
40501;SDS011;29631;49.168;9.848;2023-07-02T09:37:05;12.15;;;10.77;;
40501;SDS011;29631;49.168;9.848;2023-07-02T09:39:32;13.07;;;10.88;;
40501;SDS011;29631;49.168;9.848;2023-07-02T09:42:00;13.73;;;10.93;;
40501;SDS011;29631;49.168;9.848;2023-07-02T09:44:32;13.32;;;11.68;;
40501;SDS011;29631;49.168;9.848;2023-07-02T09:47:03;15.20;;;11.52;;
40501;SDS011;29631;49.168;9.848;2023-07-02T09:49:41;12.55;;;10.75;;
40501;SDS011;29631;49.168;9.848;2023-07-02T09:52:14;12.38;;;11.10;;
40501;SDS011;29631;49.168;9.848;2023-07-02T09:54:41;11.77;;;10.68;;
40501;SDS011;29631;49.168;9.848;2023-07-02T09:57:07;12.70;;;11.40;;
40501;SDS011;29631;49.168;9.848;2023-07-02T09:59:33;12.73;;;11.50;;
40501;SDS011;29631;49.168;9.848;2023-07-02T10:01:59;13.98;;;11.07;;
40501;SDS011;29631;49.168;9.848;2023-07-02T10:04:25;15.93;;;12.00;;
40501;SDS011;29631;49.168;9.848;2023-07-02T10:06:51;18.75;;;16.05;;
40501;SDS011;29631;49.168;9.848;2023-07-02T10:09:38;14.52;;;13.13;;
40501;SDS011;29631;49.168;9.848;2023-07-02T10:14:55;17.90;;;16.00;;
40501;SDS011;29631;49.168;9.848;2023-07-02T10:17:35;16.27;;;14.25;;
40501;SDS011;29631;49.168;9.848;2023-07-02T10:20:06;16.75;;;14.70;;
40501;SDS011;29631;49.168;9.848;2023-07-02T10:22:46;15.23;;;13.70;;
40501;SDS011;29631;49.168;9.848;2023-07-02T10:25:24;16.92;;;12.63;;
40501;SDS011;29631;49.168;9.848;2023-07-02T10:28:13;19.00;;;17.00;;
40501;SDS011;29631;49.168;9.848;2023-07-02T10:30:39;13.93;;;12.57;;
40501;SDS011;29631;49.168;9.848;2023-07-02T10:33:09;15.50;;;14.00;;
40501;SDS011;29631;49.168;9.848;2023-07-02T10:35:43;14.88;;;13.10;;
40501;SDS011;29631;49.168;9.848;2023-07-02T10:38:18;16.92;;;12.55;;
40501;SDS011;29631;49.168;9.848;2023-07-02T10:40:59;15.82;;;14.02;;
40501;SDS011;29631;49.168;9.848;2023-07-02T10:43:29;14.57;;;13.02;;
40501;SDS011;29631;49.168;9.848;2023-07-02T10:45:57;13.27;;;11.98;;
40501;SDS011;29631;49.168;9.848;2023-07-02T10:48:25;14.93;;;12.80;;
40501;SDS011;29631;49.168;9.848;2023-07-02T10:50:50;13.90;;;12.43;;
40501;SDS011;29631;49.168;9.848;2023-07-02T10:53:17;15.98;;;12.48;;
40501;SDS011;29631;49.168;9.848;2023-07-02T10:55:44;13.45;;;12.05;;
40501;SDS011;29631;49.168;9.848;2023-07-02T10:58:11;13.38;;;12.18;;
40501;SDS011;29631;49.168;9.848;2023-07-02T11:00:49;13.50;;;12.13;;
40501;SDS011;29631;49.168;9.848;2023-07-02T11:03:23;18.85;;;12.27;;
40501;SDS011;29631;49.168;9.848;2023-07-02T11:05:52;13.52;;;11.60;;
40501;SDS011;29631;49.168;9.848;2023-07-02T11:08:18;12.95;;;11.65;;
40501;SDS011;29631;49.168;9.848;2023-07-02T11:10:46;14.75;;;11.57;;
40501;SDS011;29631;49.168;9.848;2023-07-02T11:13:21;13.48;;;11.85;;
40501;SDS011;29631;49.168;9.848;2023-07-02T11:15:47;12.45;;;11.25;;
40501;SDS011;29631;49.168;9.848;2023-07-02T11:18:13;13.20;;;11.85;;
40501;SDS011;29631;49.168;9.848;2023-07-02T11:20:44;13.50;;;12.13;;
40501;SDS011;29631;49.168;9.848;2023-07-02T11:23:21;12.85;;;11.27;;
40501;SDS011;29631;49.168;9.848;2023-07-02T11:25:59;13.32;;;12.02;;
40501;SDS011;29631;49.168;9.848;2023-07-02T11:28:28;13.57;;;11.90;;
40501;SDS011;29631;49.168;9.848;2023-07-02T11:30:56;12.88;;;11.55;;
40501;SDS011;29631;49.168;9.848;2023-07-02T11:33:39;12.77;;;11.57;;
40501;SDS011;29631;49.168;9.848;2023-07-02T11:36:05;13.73;;;12.20;;
40501;SDS011;29631;49.168;9.848;2023-07-02T11:38:38;14.02;;;12.63;;
40501;SDS011;29631;49.168;9.848;2023-07-02T11:41:04;12.73;;;11.40;;
40501;SDS011;29631;49.168;9.848;2023-07-02T11:43:30;13.63;;;12.25;;
40501;SDS011;29631;49.168;9.848;2023-07-02T11:45:55;13.10;;;11.82;;
40501;SDS011;29631;49.168;9.848;2023-07-02T11:48:22;13.93;;;11.55;;
40501;SDS011;29631;49.168;9.848;2023-07-02T11:50:47;12.68;;;11.40;;
40501;SDS011;29631;49.168;9.848;2023-07-02T11:53:13;12.98;;;11.05;;
40501;SDS011;29631;49.168;9.848;2023-07-02T11:55:39;12.43;;;11.10;;
40501;SDS011;29631;49.168;9.848;2023-07-02T11:58:05;12.63;;;11.32;;
40501;SDS011;29631;49.168;9.848;2023-07-02T12:00:30;13.20;;;11.85;;
40501;SDS011;29631;49.168;9.848;2023-07-02T12:02:56;13.90;;;11.73;;
40501;SDS011;29631;49.168;9.848;2023-07-02T12:05:22;14.20;;;12.15;;
40501;SDS011;29631;49.168;9.848;2023-07-02T12:07:47;14.38;;;12.20;;
40501;SDS011;29631;49.168;9.848;2023-07-02T12:10:13;13.88;;;12.57;;
40501;SDS011;29631;49.168;9.848;2023-07-02T12:12:39;15.52;;;13.93;;
40501;SDS011;29631;49.168;9.848;2023-07-02T12:15:05;14.73;;;12.95;;
40501;SDS011;29631;49.168;9.848;2023-07-02T12:17:31;13.35;;;11.95;;
40501;SDS011;29631;49.168;9.848;2023-07-02T12:19:57;13.07;;;11.73;;
40501;SDS011;29631;49.168;9.848;2023-07-02T12:22:23;30.08;;;25.35;;
40501;SDS011;29631;49.168;9.848;2023-07-02T12:27:17;14.13;;;12.82;;
40501;SDS011;29631;49.168;9.848;2023-07-02T12:29:42;13.70;;;12.27;;
40501;SDS011;29631;49.168;9.848;2023-07-02T12:32:08;13.48;;;12.15;;
40501;SDS011;29631;49.168;9.848;2023-07-02T12:34:34;12.20;;;11.07;;
40501;SDS011;29631;49.168;9.848;2023-07-02T12:37:00;14.93;;;12.27;;
40501;SDS011;29631;49.168;9.848;2023-07-02T12:39:25;13.60;;;12.20;;
40501;SDS011;29631;49.168;9.848;2023-07-02T12:41:51;15.10;;;11.75;;
40501;SDS011;29631;49.168;9.848;2023-07-02T12:44:17;13.40;;;12.07;;
40501;SDS011;29631;49.168;9.848;2023-07-02T12:46:43;13.13;;;11.82;;
40501;SDS011;29631;49.168;9.848;2023-07-02T12:49:09;13.27;;;11.80;;
40501;SDS011;29631;49.168;9.848;2023-07-02T12:51:34;13.50;;;12.15;;
40501;SDS011;29631;49.168;9.848;2023-07-02T12:54:00;12.77;;;11.45;;
40501;SDS011;29631;49.168;9.848;2023-07-02T12:56:26;13.02;;;11.75;;
40501;SDS011;29631;49.168;9.848;2023-07-02T12:58:51;14.48;;;13.02;;
40501;SDS011;29631;49.168;9.848;2023-07-02T13:01:17;13.68;;;12.27;;
40501;SDS011;29631;49.168;9.848;2023-07-02T13:03:46;13.18;;;11.85;;
40501;SDS011;29631;49.168;9.848;2023-07-02T13:06:13;13.23;;;11.82;;
40501;SDS011;29631;49.168;9.848;2023-07-02T13:08:39;12.20;;;10.63;;
40501;SDS011;29631;49.168;9.848;2023-07-02T13:11:05;12.93;;;11.52;;
40501;SDS011;29631;49.168;9.848;2023-07-02T13:13:31;13.00;;;11.80;;
40501;SDS011;29631;49.168;9.848;2023-07-02T13:15:57;12.82;;;11.50;;
40501;SDS011;29631;49.168;9.848;2023-07-02T13:18:24;15.05;;;12.82;;
40501;SDS011;29631;49.168;9.848;2023-07-02T13:20:50;12.68;;;11.38;;
40501;SDS011;29631;49.168;9.848;2023-07-02T13:23:15;13.40;;;12.00;;
40501;SDS011;29631;49.168;9.848;2023-07-02T13:25:41;14.38;;;11.85;;
40501;SDS011;29631;49.168;9.848;2023-07-02T13:28:07;13.23;;;12.02;;
40501;SDS011;29631;49.168;9.848;2023-07-02T13:30:32;12.93;;;11.73;;
40501;SDS011;29631;49.168;9.848;2023-07-02T13:32:58;13.02;;;11.80;;
40501;SDS011;29631;49.168;9.848;2023-07-02T13:35:24;14.60;;;12.50;;
40501;SDS011;29631;49.168;9.848;2023-07-02T13:37:50;13.75;;;12.45;;
40501;SDS011;29631;49.168;9.848;2023-07-02T13:40:15;13.40;;;12.00;;
40501;SDS011;29631;49.168;9.848;2023-07-02T13:42:42;13.80;;;11.95;;
40501;SDS011;29631;49.168;9.848;2023-07-02T13:45:08;13.13;;;11.93;;
40501;SDS011;29631;49.168;9.848;2023-07-02T13:47:35;14.98;;;12.27;;
40501;SDS011;29631;49.168;9.848;2023-07-02T13:50:02;13.45;;;12.15;;
40501;SDS011;29631;49.168;9.848;2023-07-02T13:52:29;15.55;;;12.02;;
40501;SDS011;29631;49.168;9.848;2023-07-02T13:54:55;12.05;;;10.80;;
40501;SDS011;29631;49.168;9.848;2023-07-02T13:57:21;13.18;;;11.82;;
40501;SDS011;29631;49.168;9.848;2023-07-02T13:59:47;13.25;;;11.95;;
40501;SDS011;29631;49.168;9.848;2023-07-02T14:02:13;11.90;;;10.85;;
40501;SDS011;29631;49.168;9.848;2023-07-02T14:04:38;13.15;;;11.85;;
40501;SDS011;29631;49.168;9.848;2023-07-02T14:07:04;13.10;;;11.77;;
40501;SDS011;29631;49.168;9.848;2023-07-02T14:09:30;12.52;;;11.32;;
40501;SDS011;29631;49.168;9.848;2023-07-02T14:11:56;13.43;;;12.02;;
40501;SDS011;29631;49.168;9.848;2023-07-02T14:14:22;13.52;;;12.25;;
40501;SDS011;29631;49.168;9.848;2023-07-02T14:16:48;14.00;;;12.63;;
40501;SDS011;29631;49.168;9.848;2023-07-02T14:19:13;13.90;;;12.50;;
40501;SDS011;29631;49.168;9.848;2023-07-02T14:21:40;14.02;;;12.60;;
40501;SDS011;29631;49.168;9.848;2023-07-02T14:24:06;14.02;;;12.73;;
40501;SDS011;29631;49.168;9.848;2023-07-02T14:26:32;14.27;;;12.77;;
40501;SDS011;29631;49.168;9.848;2023-07-02T14:28:58;15.35;;;12.52;;
40501;SDS011;29631;49.168;9.848;2023-07-02T14:31:23;13.88;;;12.40;;
40501;SDS011;29631;49.168;9.848;2023-07-02T14:33:49;14.13;;;12.73;;
40501;SDS011;29631;49.168;9.848;2023-07-02T14:36:15;14.13;;;12.65;;
40501;SDS011;29631;49.168;9.848;2023-07-02T14:38:41;13.25;;;11.95;;
40501;SDS011;29631;49.168;9.848;2023-07-02T14:41:07;12.75;;;11.63;;
40501;SDS011;29631;49.168;9.848;2023-07-02T14:43:33;12.93;;;11.52;;
40501;SDS011;29631;49.168;9.848;2023-07-02T14:45:59;15.65;;;12.55;;
40501;SDS011;29631;49.168;9.848;2023-07-02T14:48:27;13.25;;;12.05;;
40501;SDS011;29631;49.168;9.848;2023-07-02T14:50:54;13.27;;;11.73;;
40501;SDS011;29631;49.168;9.848;2023-07-02T14:53:23;13.02;;;11.73;;
40501;SDS011;29631;49.168;9.848;2023-07-02T14:55:50;13.23;;;11.40;;
40501;SDS011;29631;49.168;9.848;2023-07-02T14:58:19;13.35;;;11.95;;